sensor_id;sensor_type;location;lat;lon;timestamp;pressure;altitude;pressure_sealevel;temperature;humidity
57442;BME280;43284;47.042;15.498;2024-01-15T00:01:28;95773.44;;;-5.08;100.00
57442;BME280;43284;47.042;15.498;2024-01-15T00:03:54;95761.53;;;-5.07;100.00
57442;BME280;43284;47.042;15.498;2024-01-15T00:06:19;95764.06;;;-5.07;100.00
57442;BME280;43284;47.042;15.498;2024-01-15T00:08:45;95769.16;;;-5.07;100.00
57442;BME280;43284;47.042;15.498;2024-01-15T00:11:11;95771.75;;;-5.10;100.00
57442;BME280;43284;47.042;15.498;2024-01-15T00:13:36;95760.69;;;-5.06;100.00
57442;BME280;43284;47.042;15.498;2024-01-15T00:16:02;95754.75;;;-5.07;100.00
57442;BME280;43284;47.042;15.498;2024-01-15T00:18:28;95749.63;;;-5.05;100.00
57442;BME280;43284;47.042;15.498;2024-01-15T00:20:53;95742.84;;;-5.08;100.00
57442;BME280;43284;47.042;15.498;2024-01-15T00:23:18;95735.25;;;-5.11;100.00
57442;BME280;43284;47.042;15.498;2024-01-15T00:25:44;95739.59;;;-5.21;100.00
57442;BME280;43284;47.042;15.498;2024-01-15T00:28:10;95738.69;;;-5.17;100.00
57442;BME280;43284;47.042;15.498;2024-01-15T00:30:35;95736.19;;;-5.20;100.00
57442;BME280;43284;47.042;15.498;2024-01-15T00:33:01;95731.16;;;-5.26;100.00
57442;BME280;43284;47.042;15.498;2024-01-15T00:35:26;95728.56;;;-5.23;100.00
57442;BME280;43284;47.042;15.498;2024-01-15T00:37:52;95728.59;;;-5.24;100.00
57442;BME280;43284;47.042;15.498;2024-01-15T00:40:18;95726.91;;;-5.22;100.00
57442;BME280;43284;47.042;15.498;2024-01-15T00:42:43;95715.84;;;-5.23;100.00
57442;BME280;43284;47.042;15.498;2024-01-15T00:45:09;95705.66;;;-5.23;100.00
57442;BME280;43284;47.042;15.498;2024-01-15T00:47:35;95709.91;;;-5.20;100.00
57442;BME280;43284;47.042;15.498;2024-01-15T00:50:00;95701.44;;;-5.25;100.00
57442;BME280;43284;47.042;15.498;2024-01-15T00:52:26;95701.47;;;-5.28;100.00
57442;BME280;43284;47.042;15.498;2024-01-15T00:54:51;95692.13;;;-5.25;100.00
57442;BME280;43284;47.042;15.498;2024-01-15T00:57:17;95701.38;;;-5.21;100.00
57442;BME280;43284;47.042;15.498;2024-01-15T00:59:44;95699.72;;;-5.23;100.00
57442;BME280;43284;47.042;15.498;2024-01-15T01:02:12;95695.50;;;-5.26;100.00
57442;BME280;43284;47.042;15.498;2024-01-15T01:04:38;95687.00;;;-5.23;100.00
57442;BME280;43284;47.042;15.498;2024-01-15T01:07:03;95685.31;;;-5.27;100.00
57442;BME280;43284;47.042;15.498;2024-01-15T01:09:29;95672.63;;;-5.30;100.00
57442;BME280;43284;47.042;15.498;2024-01-15T01:11:56;95668.34;;;-5.25;100.00
57442;BME280;43284;47.042;15.498;2024-01-15T01:14:22;95655.59;;;-5.25;100.00
57442;BME280;43284;47.042;15.498;2024-01-15T01:16:47;95653.88;;;-5.23;100.00
57442;BME280;43284;47.042;15.498;2024-01-15T01:19:13;95656.41;;;-5.22;100.00
57442;BME280;43284;47.042;15.498;2024-01-15T01:21:39;95650.50;;;-5.24;100.00
57442;BME280;43284;47.042;15.498;2024-01-15T01:24:04;95654.69;;;-5.21;100.00
57442;BME280;43284;47.042;15.498;2024-01-15T01:26:30;95661.53;;;-5.23;100.00
57442;BME280;43284;47.042;15.498;2024-01-15T01:28:56;95656.47;;;-5.26;100.00
57442;BME280;43284;47.042;15.498;2024-01-15T01:31:23;95652.22;;;-5.24;100.00
57442;BME280;43284;47.042;15.498;2024-01-15T01:33:49;95649.63;;;-5.23;100.00
57442;BME280;43284;47.042;15.498;2024-01-15T01:36:14;95653.94;;;-5.26;100.00
57442;BME280;43284;47.042;15.498;2024-01-15T01:38:40;95638.72;;;-5.32;100.00
57442;BME280;43284;47.042;15.498;2024-01-15T01:41:06;95632.59;;;-5.19;100.00
57442;BME280;43284;47.042;15.498;2024-01-15T01:43:32;95624.91;;;-5.14;100.00
57442;BME280;43284;47.042;15.498;2024-01-15T01:46:00;95608.72;;;-5.09;100.00
57442;BME280;43284;47.042;15.498;2024-01-15T01:48:26;95607.06;;;-5.13;100.00
57442;BME280;43284;47.042;15.498;2024-01-15T01:50:54;95600.25;;;-5.11;100.00
57442;BME280;43284;47.042;15.498;2024-01-15T01:53:20;95607.91;;;-5.12;100.00
57442;BME280;43284;47.042;15.498;2024-01-15T01:55:47;95603.06;;;-5.31;100.00
57442;BME280;43284;47.042;15.498;2024-01-15T01:58:13;95592.78;;;-5.25;100.00
57442;BME280;43284;47.042;15.498;2024-01-15T02:00:39;95590.28;;;-5.29;100.00
57442;BME280;43284;47.042;15.498;2024-01-15T02:03:05;95570.78;;;-5.32;100.00
57442;BME280;43284;47.042;15.498;2024-01-15T02:05:31;95561.41;;;-5.27;100.00
57442;BME280;43284;47.042;15.498;2024-01-15T02:07:57;95563.91;;;-5.22;100.00
57442;BME280;43284;47.042;15.498;2024-01-15T02:10:22;95572.44;;;-5.29;100.00
57442;BME280;43284;47.042;15.498;2024-01-15T02:12:48;95580.16;;;-5.34;100.00
57442;BME280;43284;47.042;15.498;2024-01-15T02:15:14;95576.00;;;-5.40;100.00
57442;BME280;43284;47.042;15.498;2024-01-15T02:18:08;95569.19;;;-5.41;100.00
57442;BME280;43284;47.042;15.498;2024-01-15T02:20:33;95569.25;;;-5.45;100.00
57442;BME280;43284;47.042;15.498;2024-01-15T02:23:12;95572.75;;;-5.51;100.00
57442;BME280;43284;47.042;15.498;2024-01-15T02:25:46;95562.63;;;-5.57;100.00
57442;BME280;43284;47.042;15.498;2024-01-15T02:28:17;95572.09;;;-5.68;100.00
57442;BME280;43284;47.042;15.498;2024-01-15T02:30:43;95571.25;;;-5.70;100.00
57442;BME280;43284;47.042;15.498;2024-01-15T02:33:10;95573.81;;;-5.70;100.00
57442;BME280;43284;47.042;15.498;2024-01-15T02:35:36;95573.75;;;-5.67;100.00
57442;BME280;43284;47.042;15.498;2024-01-15T02:38:02;95577.97;;;-5.63;100.00
57442;BME280;43284;47.042;15.498;2024-01-15T02:40:31;95571.16;;;-5.64;100.00
57442;BME280;43284;47.042;15.498;2024-01-15T02:42:56;95559.19;;;-5.56;100.00
57442;BME280;43284;47.042;15.498;2024-01-15T02:45:22;95555.81;;;-5.56;100.00
57442;BME280;43284;47.042;15.498;2024-01-15T02:47:48;95554.06;;;-5.51;100.00
57442;BME280;43284;47.042;15.498;2024-01-15T02:50:14;95549.78;;;-5.48;100.00
57442;BME280;43284;47.042;15.498;2024-01-15T02:52:40;95551.50;;;-5.48;100.00
57442;BME280;43284;47.042;15.498;2024-01-15T02:55:05;95548.84;;;-5.41;100.00
57442;BME280;43284;47.042;15.498;2024-01-15T02:57:31;95545.44;;;-5.41;100.00
57442;BME280;43284;47.042;15.498;2024-01-15T02:59:56;95534.38;;;-5.40;100.00
57442;BME280;43284;47.042;15.498;2024-01-15T03:02:22;95529.34;;;-5.45;100.00
57442;BME280;43284;47.042;15.498;2024-01-15T03:04:47;95514.97;;;-5.46;100.00
57442;BME280;43284;47.042;15.498;2024-01-15T03:07:13;95525.16;;;-5.47;100.00
57442;BME280;43284;47.042;15.498;2024-01-15T03:09:39;95524.31;;;-5.46;100.00
57442;BME280;43284;47.042;15.498;2024-01-15T03:12:04;95518.41;;;-5.48;100.00
57442;BME280;43284;47.042;15.498;2024-01-15T03:14:33;95520.13;;;-5.53;100.00
57442;BME280;43284;47.042;15.498;2024-01-15T03:16:59;95522.81;;;-5.64;100.00
57442;BME280;43284;47.042;15.498;2024-01-15T03:19:26;95513.63;;;-5.74;100.00
57442;BME280;43284;47.042;15.498;2024-01-15T03:21:51;95512.81;;;-5.80;100.00
57442;BME280;43284;47.042;15.498;2024-01-15T03:24:17;95511.91;;;-5.74;100.00
57442;BME280;43284;47.042;15.498;2024-01-15T03:26:42;95514.47;;;-5.75;100.00
57442;BME280;43284;47.042;15.498;2024-01-15T03:29:08;95503.59;;;-5.88;100.00
57442;BME280;43284;47.042;15.498;2024-01-15T03:31:33;95499.38;;;-5.89;100.00
57442;BME280;43284;47.042;15.498;2024-01-15T03:33:59;95493.47;;;-5.91;100.00
57442;BME280;43284;47.042;15.498;2024-01-15T03:36:24;95503.72;;;-5.96;100.00
57442;BME280;43284;47.042;15.498;2024-01-15T03:38:50;95494.44;;;-5.98;100.00
57442;BME280;43284;47.042;15.498;2024-01-15T03:41:19;95495.25;;;-5.96;100.00
57442;BME280;43284;47.042;15.498;2024-01-15T03:43:44;95497.59;;;-5.84;100.00
57442;BME280;43284;47.042;15.498;2024-01-15T03:46:10;95493.25;;;-5.74;100.00
57442;BME280;43284;47.042;15.498;2024-01-15T03:48:35;95488.28;;;-5.84;100.00
57442;BME280;43284;47.042;15.498;2024-01-15T03:51:03;95489.13;;;-5.85;100.00
57442;BME280;43284;47.042;15.498;2024-01-15T03:53:29;95486.53;;;-5.80;100.00
57442;BME280;43284;47.042;15.498;2024-01-15T03:55:54;95483.16;;;-5.81;100.00
57442;BME280;43284;47.042;15.498;2024-01-15T03:58:20;95483.16;;;-5.81;100.00
57442;BME280;43284;47.042;15.498;2024-01-15T04:00:45;95478.84;;;-5.75;100.00
57442;BME280;43284;47.042;15.498;2024-01-15T04:03:11;95475.28;;;-5.62;100.00
57442;BME280;43284;47.042;15.498;2024-01-15T04:05:38;95475.38;;;-5.68;100.00
57442;BME280;43284;47.042;15.498;2024-01-15T04:08:04;95487.16;;;-5.63;100.00
57442;BME280;43284;47.042;15.498;2024-01-15T04:10:29;95490.53;;;-5.61;100.00
57442;BME280;43284;47.042;15.498;2024-01-15T04:12:55;95493.91;;;-5.60;100.00
57442;BME280;43284;47.042;15.498;2024-01-15T04:15:21;95494.75;;;-5.58;100.00
57442;BME280;43284;47.042;15.498;2024-01-15T04:17:46;95490.47;;;-5.56;100.00
57442;BME280;43284;47.042;15.498;2024-01-15T04:20:12;95488.69;;;-5.49;100.00
57442;BME280;43284;47.042;15.498;2024-01-15T04:22:37;95476.84;;;-5.50;100.00
57442;BME280;43284;47.042;15.498;2024-01-15T04:25:03;95476.84;;;-5.50;100.00
57442;BME280;43284;47.042;15.498;2024-01-15T04:27:29;95469.16;;;-5.49;100.00
57442;BME280;43284;47.042;15.498;2024-01-15T04:29:55;95473.41;;;-5.49;100.00
57442;BME280;43284;47.042;15.498;2024-01-15T04:32:20;95476.84;;;-5.50;100.00
57442;BME280;43284;47.042;15.498;2024-01-15T04:34:46;95466.66;;;-5.52;100.00
57442;BME280;43284;47.042;15.498;2024-01-15T04:37:13;95470.94;;;-5.52;100.00
57442;BME280;43284;47.042;15.498;2024-01-15T04:39:39;95485.38;;;-5.54;100.00
57442;BME280;43284;47.042;15.498;2024-01-15T04:42:04;95492.25;;;-5.61;100.00
57442;BME280;43284;47.042;15.498;2024-01-15T04:44:30;95482.06;;;-5.60;100.00
57442;BME280;43284;47.042;15.498;2024-01-15T04:46:55;95485.44;;;-5.61;100.00
57442;BME280;43284;47.042;15.498;2024-01-15T04:49:21;95490.59;;;-5.64;100.00
57442;BME280;43284;47.042;15.498;2024-01-15T04:51:47;95496.47;;;-5.60;100.00
57442;BME280;43284;47.042;15.498;2024-01-15T04:54:12;95502.31;;;-5.52;100.00
57442;BME280;43284;47.042;15.498;2024-01-15T04:56:38;95488.75;;;-5.54;100.00
57442;BME280;43284;47.042;15.498;2024-01-15T04:59:03;95489.66;;;-5.56;100.00
57442;BME280;43284;47.042;15.498;2024-01-15T05:01:35;95499.00;;;-5.60;100.00
57442;BME280;43284;47.042;15.498;2024-01-15T05:04:00;95502.50;;;-5.67;100.00
57442;BME280;43284;47.042;15.498;2024-01-15T05:06:26;95495.75;;;-5.70;100.00
57442;BME280;43284;47.042;15.498;2024-01-15T05:08:52;95494.06;;;-5.71;100.00
57442;BME280;43284;47.042;15.498;2024-01-15T05:11:17;95494.03;;;-5.68;100.00
57442;BME280;43284;47.042;15.498;2024-01-15T05:13:43;95491.47;;;-5.68;100.00
57442;BME280;43284;47.042;15.498;2024-01-15T05:16:08;95488.00;;;-5.62;100.00
57442;BME280;43284;47.042;15.498;2024-01-15T05:18:34;95502.44;;;-5.61;100.00
57442;BME280;43284;47.042;15.498;2024-01-15T05:20:59;95494.94;;;-5.72;100.00
57442;BME280;43284;47.042;15.498;2024-01-15T05:23:25;95502.50;;;-5.69;100.00
57442;BME280;43284;47.042;15.498;2024-01-15T05:25:51;95496.59;;;-5.71;100.00
57442;BME280;43284;47.042;15.498;2024-01-15T05:28:16;95505.06;;;-5.69;100.00
57442;BME280;43284;47.042;15.498;2024-01-15T05:30:42;95501.72;;;-5.72;100.00
57442;BME280;43284;47.042;15.498;2024-01-15T05:33:08;95498.31;;;-5.71;100.00
57442;BME280;43284;47.042;15.498;2024-01-15T05:35:34;95515.28;;;-5.73;100.00
57442;BME280;43284;47.042;15.498;2024-01-15T05:37:59;95514.47;;;-5.74;100.00
57442;BME280;43284;47.042;15.498;2024-01-15T05:40:25;95502.59;;;-5.75;100.00
57442;BME280;43284;47.042;15.498;2024-01-15T05:42:50;95497.53;;;-5.75;100.00
57442;BME280;43284;47.042;15.498;2024-01-15T05:45:16;95503.50;;;-5.79;100.00
57442;BME280;43284;47.042;15.498;2024-01-15T05:47:42;95503.53;;;-5.82;100.00
57442;BME280;43284;47.042;15.498;2024-01-15T05:50:09;95508.59;;;-5.82;100.00
57442;BME280;43284;47.042;15.498;2024-01-15T05:52:35;95498.28;;;-5.70;100.00
57442;BME280;43284;47.042;15.498;2024-01-15T05:55:00;95500.06;;;-5.76;100.00
57442;BME280;43284;47.042;15.498;2024-01-15T05:57:26;95509.44;;;-5.78;100.00
57442;BME280;43284;47.042;15.498;2024-01-15T05:59:52;95516.28;;;-5.85;100.00
57442;BME280;43284;47.042;15.498;2024-01-15T06:02:17;95525.78;;;-5.96;100.00
57442;BME280;43284;47.042;15.498;2024-01-15T06:04:43;95526.63;;;-5.97;100.00
57442;BME280;43284;47.042;15.498;2024-01-15T06:07:08;95519.91;;;-6.03;100.00
57442;BME280;43284;47.042;15.498;2024-01-15T06:09:36;95514.06;;;-6.13;100.00
57442;BME280;43284;47.042;15.498;2024-01-15T06:12:04;95510.72;;;-6.16;100.00
57442;BME280;43284;47.042;15.498;2024-01-15T06:14:30;95519.19;;;-6.16;100.00
57442;BME280;43284;47.042;15.498;2024-01-15T06:16:55;95520.88;;;-6.15;100.00
57442;BME280;43284;47.042;15.498;2024-01-15T06:19:21;95506.63;;;-6.31;100.00
57442;BME280;43284;47.042;15.498;2024-01-15T06:21:46;95515.13;;;-6.34;100.00
57442;BME280;43284;47.042;15.498;2024-01-15T06:24:12;95516.84;;;-6.39;100.00
57442;BME280;43284;47.042;15.498;2024-01-15T06:26:39;95510.16;;;-6.46;100.00
57442;BME280;43284;47.042;15.498;2024-01-15T06:29:04;95513.53;;;-6.46;100.00
57442;BME280;43284;47.042;15.498;2024-01-15T06:31:30;95509.31;;;-6.50;100.00
57442;BME280;43284;47.042;15.498;2024-01-15T06:33:55;95516.91;;;-6.42;100.00
57442;BME280;43284;47.042;15.498;2024-01-15T06:36:21;95518.63;;;-6.47;100.00
57442;BME280;43284;47.042;15.498;2024-01-15T06:38:47;95529.75;;;-6.59;100.00
57442;BME280;43284;47.042;15.498;2024-01-15T06:41:12;95522.13;;;-6.57;100.00
57442;BME280;43284;47.042;15.498;2024-01-15T06:43:38;95539.03;;;-6.56;100.00
57442;BME280;43284;47.042;15.498;2024-01-15T06:46:03;95534.81;;;-6.56;100.00
57442;BME280;43284;47.042;15.498;2024-01-15T06:48:29;95539.13;;;-6.66;100.00
57442;BME280;43284;47.042;15.498;2024-01-15T06:50:54;95547.56;;;-6.65;100.00
57442;BME280;43284;47.042;15.498;2024-01-15T06:53:20;95553.53;;;-6.69;100.00
57442;BME280;43284;47.042;15.498;2024-01-15T06:55:46;95554.44;;;-6.75;100.00
57442;BME280;43284;47.042;15.498;2024-01-15T06:58:11;95562.91;;;-6.76;100.00
57442;BME280;43284;47.042;15.498;2024-01-15T07:00:37;95572.19;;;-6.69;100.00
57442;BME280;43284;47.042;15.498;2024-01-15T07:03:03;95577.28;;;-6.72;100.00
57442;BME280;43284;47.042;15.498;2024-01-15T07:05:31;95584.09;;;-6.75;100.00
57442;BME280;43284;47.042;15.498;2024-01-15T07:08:00;95578.13;;;-6.73;100.00
57442;BME280;43284;47.042;15.498;2024-01-15T07:10:26;95581.59;;;-6.81;100.00
57442;BME280;43284;47.042;15.498;2024-01-15T07:12:51;95584.16;;;-6.88;100.00
57442;BME280;43284;47.042;15.498;2024-01-15T07:15:23;95589.28;;;-6.91;100.00
57442;BME280;43284;47.042;15.498;2024-01-15T07:17:48;95593.44;;;-6.85;100.00
57442;BME280;43284;47.042;15.498;2024-01-15T07:20:14;95585.00;;;-6.87;100.00
57442;BME280;43284;47.042;15.498;2024-01-15T07:22:39;95594.31;;;-6.88;100.00
57442;BME280;43284;47.042;15.498;2024-01-15T07:25:05;95589.22;;;-6.81;100.00
57442;BME280;43284;47.042;15.498;2024-01-15T07:27:32;95598.47;;;-6.76;100.00
57442;BME280;43284;47.042;15.498;2024-01-15T07:29:57;95605.25;;;-6.75;100.00
57442;BME280;43284;47.042;15.498;2024-01-15T07:32:24;95607.72;;;-6.67;100.00
57442;BME280;43284;47.042;15.498;2024-01-15T07:34:49;95614.47;;;-6.63;100.00
57442;BME280;43284;47.042;15.498;2024-01-15T07:37:15;95620.38;;;-6.59;100.00
57442;BME280;43284;47.042;15.498;2024-01-15T07:39:40;95623.78;;;-6.59;100.00
57442;BME280;43284;47.042;15.498;2024-01-15T07:42:06;95623.72;;;-6.51;100.00
57442;BME280;43284;47.042;15.498;2024-01-15T07:44:32;95624.53;;;-6.48;100.00
57442;BME280;43284;47.042;15.498;2024-01-15T07:46:58;95630.44;;;-6.43;100.00
57442;BME280;43284;47.042;15.498;2024-01-15T07:49:23;95631.25;;;-6.36;100.00
57442;BME280;43284;47.042;15.498;2024-01-15T07:51:52;95630.28;;;-6.26;100.00
57442;BME280;43284;47.042;15.498;2024-01-15T07:54:17;95633.66;;;-6.20;100.00
57442;BME280;43284;47.042;15.498;2024-01-15T07:57:02;95637.88;;;-6.16;100.00
57442;BME280;43284;47.042;15.498;2024-01-15T07:59:31;95630.16;;;-6.09;100.00
57442;BME280;43284;47.042;15.498;2024-01-15T08:01:58;95633.50;;;-6.04;100.00
57442;BME280;43284;47.042;15.498;2024-01-15T08:04:24;95629.25;;;-5.98;100.00
57442;BME280;43284;47.042;15.498;2024-01-15T08:06:50;95641.88;;;-5.92;100.00
57442;BME280;43284;47.042;15.498;2024-01-15T08:09:15;95641.78;;;-5.83;100.00
57442;BME280;43284;47.042;15.498;2024-01-15T08:11:41;95638.38;;;-5.81;100.00
57442;BME280;43284;47.042;15.498;2024-01-15T08:14:07;95644.22;;;-5.72;100.00
57442;BME280;43284;47.042;15.498;2024-01-15T08:16:33;95651.72;;;-5.60;100.00
57442;BME280;43284;47.042;15.498;2024-01-15T08:18:59;95648.19;;;-5.47;100.00
57442;BME280;43284;47.042;15.498;2024-01-15T08:21:24;95642.19;;;-5.40;100.00
57442;BME280;43284;47.042;15.498;2024-01-15T08:23:50;95637.88;;;-5.33;100.00
57442;BME280;43284;47.042;15.498;2024-01-15T08:26:16;95649.69;;;-5.27;100.00
57442;BME280;43284;47.042;15.498;2024-01-15T08:28:41;95642.81;;;-5.21;100.00
57442;BME280;43284;47.042;15.498;2024-01-15T08:31:07;95650.38;;;-5.14;100.00
57442;BME280;43284;47.042;15.498;2024-01-15T08:33:32;95647.72;;;-5.04;100.00
57442;BME280;43284;47.042;15.498;2024-01-15T08:36:01;95647.59;;;-4.94;100.00
57442;BME280;43284;47.042;15.498;2024-01-15T08:38:26;95648.34;;;-4.88;100.00
57442;BME280;43284;47.042;15.498;2024-01-15T08:40:54;95645.72;;;-4.80;100.00
57442;BME280;43284;47.042;15.498;2024-01-15T08:43:22;95646.41;;;-4.70;100.00
57442;BME280;43284;47.042;15.498;2024-01-15T08:45:47;95651.38;;;-4.58;100.00
57442;BME280;43284;47.042;15.498;2024-01-15T08:48:13;95652.09;;;-4.50;100.00
57442;BME280;43284;47.042;15.498;2024-01-15T08:50:39;95647.69;;;-4.39;100.00
57442;BME280;43284;47.042;15.498;2024-01-15T08:53:04;95645.88;;;-4.32;100.00
57442;BME280;43284;47.042;15.498;2024-01-15T08:55:30;95652.41;;;-4.12;100.00
57442;BME280;43284;47.042;15.498;2024-01-15T08:57:56;95646.25;;;-4.01;100.00
57442;BME280;43284;47.042;15.498;2024-01-15T09:00:21;95650.28;;;-3.87;100.00
57442;BME280;43284;47.042;15.498;2024-01-15T09:02:47;95658.75;;;-3.84;100.00
57442;BME280;43284;47.042;15.498;2024-01-15T09:05:12;95663.97;;;-3.43;100.00
57442;BME280;43284;47.042;15.498;2024-01-15T09:07:38;95663.84;;;-3.36;100.00
57442;BME280;43284;47.042;15.498;2024-01-15T09:10:04;95665.22;;;-3.18;100.00
57442;BME280;43284;47.042;15.498;2024-01-15T09:12:30;95668.28;;;-3.00;100.00
57442;BME280;43284;47.042;15.498;2024-01-15T09:14:55;95668.19;;;-2.94;100.00
57442;BME280;43284;47.042;15.498;2024-01-15T09:17:21;95658.78;;;-2.94;100.00
57442;BME280;43284;47.042;15.498;2024-01-15T09:19:49;95649.34;;;-2.90;100.00
57442;BME280;43284;47.042;15.498;2024-01-15T09:22:15;95641.66;;;-2.88;100.00
57442;BME280;43284;47.042;15.498;2024-01-15T09:24:44;95639.84;;;-2.85;100.00
57442;BME280;43284;47.042;15.498;2024-01-15T09:27:10;95622.72;;;-2.80;100.00
57442;BME280;43284;47.042;15.498;2024-01-15T09:29:36;95619.25;;;-2.77;100.00
57442;BME280;43284;47.042;15.498;2024-01-15T09:32:05;95616.47;;;-2.66;100.00
57442;BME280;43284;47.042;15.498;2024-01-15T09:34:33;95612.88;;;-2.58;100.00
57442;BME280;43284;47.042;15.498;2024-01-15T09:36:58;95615.19;;;-2.47;100.00
57442;BME280;43284;47.042;15.498;2024-01-15T09:39:25;95616.59;;;-2.34;100.00
57442;BME280;43284;47.042;15.498;2024-01-15T09:41:52;95608.56;;;-2.18;100.00
57442;BME280;43284;47.042;15.498;2024-01-15T09:44:18;95602.56;;;-1.83;100.00
57442;BME280;43284;47.042;15.498;2024-01-15T09:46:44;95608.44;;;-1.79;100.00
57442;BME280;43284;47.042;15.498;2024-01-15T09:49:11;95607.41;;;-1.72;100.00
57442;BME280;43284;47.042;15.498;2024-01-15T09:51:37;95609.38;;;-1.49;100.00
57442;BME280;43284;47.042;15.498;2024-01-15T09:54:04;95611.22;;;-1.23;100.00
57442;BME280;43284;47.042;15.498;2024-01-15T09:56:31;95601.88;;;-0.94;100.00
57442;BME280;43284;47.042;15.498;2024-01-15T09:58:57;95591.44;;;-0.88;100.00
57442;BME280;43284;47.042;15.498;2024-01-15T10:01:23;95597.97;;;-0.76;100.00
57442;BME280;43284;47.042;15.498;2024-01-15T10:03:50;95588.28;;;-0.68;100.00
57442;BME280;43284;47.042;15.498;2024-01-15T10:06:17;95593.88;;;-0.54;100.00
57442;BME280;43284;47.042;15.498;2024-01-15T10:08:47;95580.06;;;-0.50;100.00
57442;BME280;43284;47.042;15.498;2024-01-15T10:11:13;95572.97;;;-0.42;100.00
57442;BME280;43284;47.042;15.498;2024-01-15T10:13:39;95576.06;;;-0.32;100.00
57442;BME280;43284;47.042;15.498;2024-01-15T10:16:05;95573.81;;;-0.14;100.00
57442;BME280;43284;47.042;15.498;2024-01-15T10:18:31;95572.63;;;-0.04;100.00
57442;BME280;43284;47.042;15.498;2024-01-15T10:20:57;95560.47;;;0.01;100.00
57442;BME280;43284;47.042;15.498;2024-01-15T10:23:24;95557.06;;;0.01;100.00
57442;BME280;43284;47.042;15.498;2024-01-15T10:25:49;95549.28;;;0.02;100.00
57442;BME280;43284;47.042;15.498;2024-01-15T10:28:18;95545.72;;;0.06;100.00
57442;BME280;43284;47.042;15.498;2024-01-15T10:30:44;95540.97;;;0.20;100.00
57442;BME280;43284;47.042;15.498;2024-01-15T10:33:10;95536.63;;;0.23;100.00
57442;BME280;43284;47.042;15.498;2024-01-15T10:35:37;95531.44;;;0.24;99.08
57442;BME280;43284;47.042;15.498;2024-01-15T10:38:04;95530.41;;;0.28;98.57
57442;BME280;43284;47.042;15.498;2024-01-15T10:40:31;95531.94;;;0.34;97.41
57442;BME280;43284;47.042;15.498;2024-01-15T10:42:57;95537.50;;;0.47;95.93
57442;BME280;43284;47.042;15.498;2024-01-15T10:45:23;95532.09;;;0.54;94.19
57442;BME280;43284;47.042;15.498;2024-01-15T10:47:48;95529.91;;;0.67;93.17
57442;BME280;43284;47.042;15.498;2024-01-15T10:50:14;95523.50;;;0.79;91.35
57442;BME280;43284;47.042;15.498;2024-01-15T10:52:40;95526.59;;;0.87;89.55
57442;BME280;43284;47.042;15.498;2024-01-15T10:55:07;95515.44;;;0.88;89.32
57442;BME280;43284;47.042;15.498;2024-01-15T10:57:35;95524.25;;;1.05;90.35
57442;BME280;43284;47.042;15.498;2024-01-15T11:00:01;95524.75;;;1.14;89.69
57442;BME280;43284;47.042;15.498;2024-01-15T11:02:29;95511.41;;;1.27;87.34
57442;BME280;43284;47.042;15.498;2024-01-15T11:04:55;95507.53;;;1.38;87.84
57442;BME280;43284;47.042;15.498;2024-01-15T11:07:22;95498.66;;;1.46;86.16
57442;BME280;43284;47.042;15.498;2024-01-15T11:09:50;95498.59;;;1.47;84.00
57442;BME280;43284;47.042;15.498;2024-01-15T11:12:16;95500.09;;;1.53;83.91
57442;BME280;43284;47.042;15.498;2024-01-15T11:14:47;95499.16;;;1.55;84.10
57442;BME280;43284;47.042;15.498;2024-01-15T11:17:13;95495.53;;;1.59;84.30
57442;BME280;43284;47.042;15.498;2024-01-15T11:19:49;95494.31;;;1.68;83.44
57442;BME280;43284;47.042;15.498;2024-01-15T11:24:56;95485.19;;;1.81;81.15
57442;BME280;43284;47.042;15.498;2024-01-15T11:27:41;95476.56;;;1.82;80.06
57442;BME280;43284;47.042;15.498;2024-01-15T11:30:11;95484.94;;;1.88;79.07
57442;BME280;43284;47.042;15.498;2024-01-15T11:32:37;95479.53;;;1.94;78.27
57442;BME280;43284;47.042;15.498;2024-01-15T11:35:07;95477.22;;;2.08;75.86
57442;BME280;43284;47.042;15.498;2024-01-15T11:40:38;95464.91;;;2.15;73.87
57442;BME280;43284;47.042;15.498;2024-01-15T11:43:05;95470.25;;;2.31;71.98
57442;BME280;43284;47.042;15.498;2024-01-15T11:45:32;95467.81;;;2.28;71.30
57442;BME280;43284;47.042;15.498;2024-01-15T11:50:40;95477.00;;;2.33;73.29
57442;BME280;43284;47.042;15.498;2024-01-15T11:53:17;95465.59;;;2.39;70.12
57442;BME280;43284;47.042;15.498;2024-01-15T11:55:45;95451.84;;;2.38;68.62
57442;BME280;43284;47.042;15.498;2024-01-15T11:58:11;95459.97;;;2.50;68.64
57442;BME280;43284;47.042;15.498;2024-01-15T12:00:44;95457.81;;;2.59;69.56
57442;BME280;43284;47.042;15.498;2024-01-15T12:03:10;95449.88;;;2.64;66.84
57442;BME280;43284;47.042;15.498;2024-01-15T12:05:40;95446.94;;;2.72;65.90
57442;BME280;43284;47.042;15.498;2024-01-15T12:08:07;95444.28;;;2.73;66.00
57442;BME280;43284;47.042;15.498;2024-01-15T12:10:37;95444.22;;;2.75;65.52
57442;BME280;43284;47.042;15.498;2024-01-15T12:13:16;95432.09;;;2.77;64.97
57442;BME280;43284;47.042;15.498;2024-01-15T12:15:46;95421.78;;;2.77;64.93
57442;BME280;43284;47.042;15.498;2024-01-15T12:18:13;95418.22;;;2.79;65.27
57442;BME280;43284;47.042;15.498;2024-01-15T12:20:40;95420.44;;;2.87;65.52
57442;BME280;43284;47.042;15.498;2024-01-15T12:23:08;95422.09;;;2.88;65.64
57442;BME280;43284;47.042;15.498;2024-01-15T12:25:35;95417.97;;;3.03;65.02
57442;BME280;43284;47.042;15.498;2024-01-15T12:28:01;95415.88;;;3.11;63.66
57442;BME280;43284;47.042;15.498;2024-01-15T12:30:28;95413.38;;;3.09;63.13
57442;BME280;43284;47.042;15.498;2024-01-15T12:32:54;95419.34;;;3.10;62.90
57442;BME280;43284;47.042;15.498;2024-01-15T12:35:20;95422.63;;;3.14;63.12
57442;BME280;43284;47.042;15.498;2024-01-15T12:37:47;95426.81;;;3.16;62.85
57442;BME280;43284;47.042;15.498;2024-01-15T12:40:13;95416.72;;;3.12;63.31
57442;BME280;43284;47.042;15.498;2024-01-15T12:42:40;95424.53;;;3.10;63.87
57442;BME280;43284;47.042;15.498;2024-01-15T12:45:06;95418.81;;;3.03;63.87
57442;BME280;43284;47.042;15.498;2024-01-15T12:47:32;95412.00;;;3.02;64.76